Time;durP1;ratioP1;P1;durP2;ratioP2;P2;SDS_P1;SDS_P2;PMS_P1;PMS_P2;Temp;Humidity;BMP_temperature;BMP_pressure;BME280_temperature;BME280_humidity;BME280_pressure;Samples;Min_cycle;Max_cycle;Signal;HPM_P1;HPM_P2
2021/10/28 00:15:57;;;;;;;10.75;5.22;;;;;;;;;;10252713;28;20042;-56
2021/10/28 00:20:56;;;;;;;15.43;9.13;;;;;;;;;;10246445;28;20395;-59
2021/10/28 00:25:53;;;;;;;;;;;;;;;;;;10243523;28;20035;-60
2021/10/28 00:30:52;;;;;;;20.63;9.88;;;;;;;;;;10227871;28;20278;-62
2021/10/28 00:35:49;;;;;;;19.88;10.52;;;;;;;;;;10228807;28;20092;-59
2021/10/28 00:40:47;;;;;;;4.87;2.77;;;;;;;;;;10209831;28;20553;-59
2021/10/28 00:45:44;;;;;;;3.90;2.67;;;;;;;;;;10221934;28;20038;-60
2021/10/28 00:50:42;;;;;;;11.27;6.67;;;;;;;;;;10218177;28;20039;-57
2021/10/28 00:55:39;;;;;;;17.40;9.90;;;;;;;;;;10217847;28;20042;-60
2021/10/28 01:00:36;;;;;;;21.20;10.23;;;;;;;;;;10220688;28;20038;-60
2021/10/28 01:05:34;;;;;;;13.30;7.10;;;;;;;;;;10232016;28;20029;-59
2021/10/28 01:10:31;;;;;;;23.47;11.63;;;;;;;;;;10276316;28;20167;-56
2021/10/28 01:15:29;;;;;;;21.67;12.37;;;;;;;;;;10262063;28;20037;-59
2021/10/28 01:20:26;;;;;;;27.07;12.97;;;;;;;;;;10259279;28;20042;-60
2021/10/28 01:25:24;;;;;;;12.67;8.60;;;;;;;;;;10270489;28;20092;-58
2021/10/28 01:30:22;;;;;;;24.30;12.68;;;;;;;;;;10269529;28;20061;-60
2021/10/28 01:35:19;;;;;;;12.83;5.70;;;;;;;;;;10267606;28;20474;-59
2021/10/28 01:40:17;;;;;;;14.17;6.47;;;;;;;;;;10276290;28;20030;-59
2021/10/28 01:45:14;;;;;;;17.35;8.07;;;;;;;;;;10266972;28;20129;-60
2021/10/28 01:50:12;;;;;;;15.27;8.63;;;;;;;;;;10267414;28;20038;-57
2021/10/28 01:55:10;;;;;;;19.20;12.57;;;;;;;;;;10264757;28;20094;-61
2021/10/28 02:00:19;;;;;;;20.98;13.40;;;;;;;;;;10263813;28;20116;-61
2021/10/28 02:05:18;;;;;;;21.23;10.48;;;;;;;;;;10274671;28;20038;-60
2021/10/28 02:10:15;;;;;;;6.38;4.15;;;;;;;;;;10244071;28;20084;-59
2021/10/28 02:15:13;;;;;;;25.20;7.03;;;;;;;;;;10275950;28;20092;-61
2021/10/28 02:20:12;;;;;;;11.35;5.32;;;;;;;;;;10247780;28;20026;-59
2021/10/28 02:25:10;;;;;;;17.67;7.75;;;;;;;;;;10261783;28;20061;-60
2021/10/28 02:30:09;;;;;;;25.10;10.00;;;;;;;;;;10267388;28;20534;-60
2021/10/28 02:35:07;;;;;;;9.70;6.30;;;;;;;;;;10260134;28;20120;-61
2021/10/28 02:40:06;;;;;;;12.13;7.67;;;;;;;;;;10260969;28;20052;-61
2021/10/28 02:45:03;;;;;;;11.45;7.07;;;;;;;;;;10233172;28;20064;-58
2021/10/28 02:50:01;;;;;;;6.90;5.25;;;;;;;;;;10253088;28;20084;-59
2021/10/28 02:54:58;;;;;;;11.87;7.87;;;;;;;;;;10295908;28;20534;-60
2021/10/28 02:59:56;;;;;;;15.07;9.07;;;;;;;;;;10292825;28;20041;-59
2021/10/28 03:04:54;;;;;;;9.27;4.97;;;;;;;;;;10276381;28;20629;-57
2021/10/28 03:09:51;;;;;;;14.40;9.90;;;;;;;;;;10273847;28;20038;-60
2021/10/28 03:14:55;;;;;;;13.70;7.27;;;;;;;;;;10249512;28;20284;-59
2021/10/28 03:25:35;;;;;;;10.25;5.35;;;;;;;;;;10252157;28;20524;-61
2021/10/28 03:30:26;;;;;;;22.13;11.63;;;;;;;;;;10228625;28;20040;-60
2021/10/28 03:35:23;;;;;;;9.33;5.67;;;;;;;;;;10232188;28;20038;-60
2021/10/28 04:31:48;;;;;;;10.77;4.50;;;;;;;;;;10239323;28;20041;-62
2021/10/28 04:36:46;;;;;;;7.23;4.37;;;;;;;;;;10232946;28;20049;-61
2021/10/28 04:41:43;;;;;;;7.90;4.77;;;;;;;;;;10242421;28;20050;-61
2021/10/28 04:46:41;;;;;;;9.90;4.93;;;;;;;;;;10244800;28;20045;-63
2021/10/28 04:51:38;;;;;;;7.70;4.77;;;;;;;;;;10235239;28;20034;-61
2021/10/28 04:56:35;;;;;;;8.67;5.37;;;;;;;;;;10219532;28;20061;-64
2021/10/28 05:01:34;;;;;;;10.20;6.17;;;;;;;;;;10214743;28;20493;-62
2021/10/28 05:06:31;;;;;;;10.55;5.45;;;;;;;;;;10212037;28;20034;-62
2021/10/28 05:11:29;;;;;;;16.17;6.00;;;;;;;;;;10212902;28;20045;-64
2021/10/28 05:16:26;;;;;;;11.40;6.50;;;;;;;;;;10220581;28;20042;-62
2021/10/28 05:21:24;;;;;;;14.20;6.63;;;;;;;;;;10229476;28;20038;-62
2021/10/28 05:26:21;;;;;;;11.13;6.47;;;;;;;;;;10223035;28;20031;-62
2021/10/28 05:31:21;;;;;;;14.33;7.50;;;;;;;;;;10208504;28;20117;-63
2021/10/28 05:36:18;;;;;;;22.65;7.57;;;;;;;;;;10201492;28;20073;-63
2021/10/28 05:41:16;;;;;;;17.77;7.60;;;;;;;;;;10219140;28;20130;-65
2021/10/28 05:46:13;;;;;;;13.40;7.70;;;;;;;;;;10236394;28;20188;-64
2021/10/28 05:51:11;;;;;;;13.60;7.53;;;;;;;;;;10240489;28;20046;-63
2021/10/28 05:56:09;;;;;;;14.07;7.50;;;;;;;;;;10250737;28;20403;-62
2021/10/28 06:01:07;;;;;;;13.77;6.33;;;;;;;;;;10232774;28;20046;-60
2021/10/28 06:06:04;;;;;;;6.47;4.20;;;;;;;;;;10230617;28;20034;-62
2021/10/28 06:11:02;;;;;;;8.17;3.80;;;;;;;;;;10202356;28;20134;-61
2021/10/28 06:16:00;;;;;;;13.80;7.67;;;;;;;;;;10203456;28;20053;-61
2021/10/28 06:20:57;;;;;;;12.32;6.63;;;;;;;;;;10194188;28;20042;-62
2021/10/28 06:25:55;;;;;;;18.77;6.87;;;;;;;;;;10196659;28;20069;-61
2021/10/28 06:30:52;;;;;;;12.73;5.90;;;;;;;;;;10213182;28;20062;-61
2021/10/28 06:35:50;;;;;;;17.07;8.50;;;;;;;;;;10212779;28;20030;-62
2021/10/28 06:40:48;;;;;;;15.73;7.63;;;;;;;;;;10194029;28;20047;-62
2021/10/28 06:45:45;;;;;;;15.50;6.67;;;;;;;;;;10200925;28;20108;-60
2021/10/28 06:50:54;;;;;;;8.23;6.33;;;;;;;;;;10196406;28;20046;-61
2021/10/28 06:56:14;;;;;;;12.75;7.75;;;;;;;;;;10200429;28;20084;-60
2021/10/28 07:06:28;;;;;;;26.67;7.95;;;;;;;;;;10194325;28;20049;-62
2021/10/28 07:11:29;;;;;;;19.83;9.07;;;;;;;;;;10215658;28;20462;-63
2021/10/28 07:16:35;;;;;;;20.88;7.75;;;;;;;;;;10221606;28;20038;-61
2021/10/28 07:21:47;;;;;;;13.90;5.88;;;;;;;;;;10230609;28;20042;-63
2021/10/28 08:28:41;;;;;;;13.45;5.47;;;;;;;;;;10230227;28;20069;-62
2021/10/28 08:29:38;;;;;;;10.17;4.90;;;;;;;;;;10235066;28;21030;-63
2021/10/28 08:34:37;;;;;;;10.35;5.05;;;;;;;;;;10240099;28;20053;-63
2021/10/28 08:39:35;;;;;;;13.48;6.25;;;;;;;;;;10224918;28;20041;-63
2021/10/28 08:44:34;;;;;;;7.60;5.03;;;;;;;;;;10229430;28;20508;-63
2021/10/28 08:49:35;;;;;;;12.93;4.38;;;;;;;;;;10235296;28;20038;-63
2021/10/28 09:26:15;;;;;;;9.63;4.97;;;;;;;;;;10239674;28;20523;-63
2021/10/28 09:31:18;;;;;;;6.68;2.92;;;;;;;;;;10230173;28;21031;-63
2021/10/28 09:47:30;;;;;;;8.27;3.72;;;;;;;;;;10229375;28;20069;-63
2021/10/28 09:52:31;;;;;;;8.48;4.18;;;;;;;;;;10234713;28;20457;-62
2021/10/28 09:58:04;;;;;;;10.90;4.20;;;;;;;;;;10229486;28;20038;-63
2021/10/28 10:02:55;;;;;;;6.65;3.75;;;;;;;;;;10232874;28;20034;-62
2021/10/28 10:07:54;;;;;;;11.73;3.58;;;;;;;;;;10237184;28;20046;-64
2021/10/28 10:12:52;;;;;;;5.30;3.38;;;;;;;;;;10226368;28;20052;-63
2021/10/28 10:17:49;;;;;;;;;;;;;;;;;;10232304;28;20042;-62
2021/10/28 10:28:35;;;;;;;6.38;3.67;;;;;;;;;;10279414;22;20047;-62
2021/10/28 11:06:18;;;;;;;6.25;3.00;;;;;;;;;;10350169;28;20036;-64
2021/10/28 11:22:27;;;;;;;5.57;2.15;;;;;;;;;;10371311;28;20536;-64
2021/10/28 11:27:44;;;;;;;6.93;2.80;;;;;;;;;;10373172;28;20037;-63
2021/10/28 12:46:47;;;;;;;9.88;3.33;;;;;;;;;;10356304;28;20067;-63
2021/10/28 13:02:25;;;;;;;2.65;1.83;;;;;;;;;;10349966;28;20024;-62
2021/10/28 13:49:08;;;;;;;9.65;1.30;;;;;;;;;;10333182;28;20671;-63
2021/10/28 15:33:49;;;;;;;1.17;1.05;;;;;;;;;;10360180;28;20028;-63
2021/10/28 15:39:07;;;;;;;1.60;0.82;;;;;;;;;;10357759;28;20048;-64
2021/10/28 16:25:22;;;;;;;2.42;1.40;;;;;;;;;;10366914;28;20047;-64
2021/10/28 16:30:19;;;;;;;3.53;1.90;;;;;;;;;;10361917;28;20506;-64
2021/10/28 16:35:17;;;;;;;1.30;1.20;;;;;;;;;;10348759;28;20032;-65
2021/10/28 16:40:15;;;;;;;2.60;1.40;;;;;;;;;;10360735;28;20104;-64
2021/10/28 16:45:12;;;;;;;3.30;1.47;;;;;;;;;;10364953;28;20346;-64
2021/10/28 16:50:11;;;;;;;4.03;1.30;;;;;;;;;;10350127;28;20033;-64
2021/10/28 16:55:09;;;;;;;2.97;1.75;;;;;;;;;;10355847;28;20033;-64
2021/10/28 17:00:07;;;;;;;2.90;1.53;;;;;;;;;;10345665;28;20048;-65
2021/10/28 17:05:05;;;;;;;4.10;2.03;;;;;;;;;;10343142;28;20041;-64
2021/10/28 17:10:04;;;;;;;2.13;1.42;;;;;;;;;;10363690;28;20056;-64
2021/10/28 17:15:03;;;;;;;4.35;2.15;;;;;;;;;;10354161;28;20444;-64
2021/10/28 17:20:07;;;;;;;2.88;1.70;;;;;;;;;;10366060;28;20477;-63
2021/10/28 17:25:06;;;;;;;5.18;1.95;;;;;;;;;;10367263;28;20040;-63
2021/10/28 17:30:04;;;;;;;2.40;2.15;;;;;;;;;;10354946;28;20045;-63
2021/10/28 17:35:02;;;;;;;1.60;1.17;;;;;;;;;;10374298;28;20041;-63
2021/10/28 17:39:59;;;;;;;3.67;2.43;;;;;;;;;;10330863;28;20041;-63
2021/10/28 17:44:57;;;;;;;3.93;2.10;;;;;;;;;;10351689;28;20509;-63
2021/10/28 17:49:58;;;;;;;2.08;1.77;;;;;;;;;;10337642;28;20032;-63
2021/10/28 17:54:56;;;;;;;4.97;1.70;;;;;;;;;;10359960;28;20040;-62
2021/10/28 17:59:53;;;;;;;2.80;1.83;;;;;;;;;;10349032;28;20029;-64
2021/10/28 18:04:51;;;;;;;2.77;1.40;;;;;;;;;;10364297;28;20032;-64
2021/10/28 18:09:49;;;;;;;1.43;1.13;;;;;;;;;;10349862;28;20029;-62
2021/10/28 18:14:46;;;;;;;2.33;2.13;;;;;;;;;;10357810;28;20501;-63
2021/10/28 18:19:44;;;;;;;2.07;1.67;;;;;;;;;;10369867;28;20039;-63
2021/10/28 18:24:42;;;;;;;3.73;1.50;;;;;;;;;;10357022;28;20041;-62
2021/10/28 18:29:40;;;;;;;6.50;1.92;;;;;;;;;;10381772;28;20052;-64
2021/10/28 18:34:39;;;;;;;4.68;1.63;;;;;;;;;;10361132;28;20036;-63
2021/10/28 18:39:37;;;;;;;1.73;1.20;;;;;;;;;;10365400;28;20058;-63
2021/10/28 18:44:34;;;;;;;2.63;1.70;;;;;;;;;;10353043;28;20040;-63
2021/10/28 18:49:32;;;;;;;3.72;2.05;;;;;;;;;;10362150;28;20509;-64
2021/10/28 18:54:29;;;;;;;3.00;1.97;;;;;;;;;;10353060;27;20377;-62
2021/10/28 18:59:27;;;;;;;4.53;2.27;;;;;;;;;;10355443;28;20051;-62
2021/10/28 19:04:24;;;;;;;3.43;2.43;;;;;;;;;;10356684;28;20394;-62
2021/10/28 19:09:21;;;;;;;5.87;2.70;;;;;;;;;;10352421;28;20037;-62
2021/10/28 19:14:19;;;;;;;2.53;1.87;;;;;;;;;;10357898;28;20036;-63
2021/10/28 19:19:16;;;;;;;2.53;1.53;;;;;;;;;;10384044;28;20037;-63
2021/10/28 19:24:14;;;;;;;3.10;1.90;;;;;;;;;;10380907;28;20048;-63
2021/10/28 19:29:11;;;;;;;3.30;2.00;;;;;;;;;;10380189;28;20612;-58
2021/10/28 19:34:09;;;;;;;2.73;2.13;;;;;;;;;;10381426;28;20032;-62
2021/10/28 19:49:37;;;;;;;4.63;2.00;;;;;;;;;;10376405;28;20029;-63
2021/10/28 19:54:35;;;;;;;3.47;2.07;;;;;;;;;;10374901;28;20040;-62
2021/10/28 19:59:36;;;;;;;;;;;;;;;;;;10394065;28;20567;-63
2021/10/28 20:04:55;;;;;;;3.08;2.00;;;;;;;;;;10388260;28;20829;-63
2021/10/28 20:20:48;;;;;;;3.13;2.70;;;;;;;;;;10362320;28;20031;-63
2021/10/28 20:25:45;;;;;;;7.07;3.10;;;;;;;;;;10388073;28;20547;-61
2021/10/28 20:31:17;;;;;;;4.93;2.93;;;;;;;;;;10383147;28;20071;-63
2021/10/28 20:37:05;;;;;;;5.38;2.60;;;;;;;;;;10383833;28;20044;-62
2021/10/28 20:41:24;;;;;;;7.05;2.80;;;;;;;;;;10387880;28;20284;-63
2021/10/28 20:46:23;;;;;;;3.28;2.28;;;;;;;;;;10392424;28;20131;-62
2021/10/28 20:51:22;;;;;;;2.65;2.17;;;;;;;;;;10381185;28;20405;-62
2021/10/28 20:56:25;;;;;;;7.85;5.05;;;;;;;;;;10380651;28;20049;-63
2021/10/28 21:01:23;;;;;;;3.95;2.53;;;;;;;;;;10386191;28;20111;-63
2021/10/28 21:06:21;;;;;;;3.42;2.33;;;;;;;;;;10391545;28;20082;-63
2021/10/28 21:11:18;;;;;;;3.47;2.37;;;;;;;;;;10381357;28;20036;-63
2021/10/28 21:16:16;;;;;;;7.83;2.63;;;;;;;;;;10388974;28;20047;-64
2021/10/28 21:21:14;;;;;;;2.20;1.70;;;;;;;;;;10384721;28;20036;-63
2021/10/28 21:26:12;;;;;;;5.97;3.23;;;;;;;;;;10379025;28;20032;-63
2021/10/28 21:31:09;;;;;;;4.15;2.97;;;;;;;;;;10386853;28;20040;-63
2021/10/28 21:36:07;;;;;;;5.80;2.93;;;;;;;;;;10389927;28;20409;-64
2021/10/28 21:41:04;;;;;;;4.40;3.03;;;;;;;;;;10392896;28;20265;-62
2021/10/28 21:46:02;;;;;;;6.00;4.07;;;;;;;;;;10385032;28;20038;-63
2021/10/28 21:51:01;;;;;;;5.87;2.00;;;;;;;;;;10388480;28;20143;-63
2021/10/28 21:56:12;;;;;;;3.47;2.08;;;;;;;;;;10392555;28;20522;-63
2021/10/28 22:27:28;;;;;;;3.35;2.05;;;;;;;;;;10362392;28;20033;-63
2021/10/28 22:32:26;;;;;;;2.13;1.92;;;;;;;;;;10368257;28;20361;-63
2021/10/28 22:37:38;;;;;;;6.45;3.50;;;;;;;;;;10372932;28;20028;-62
2021/10/28 22:42:35;;;;;;;2.72;1.90;;;;;;;;;;10366913;28;20029;-63
2021/10/28 22:47:33;;;;;;;3.03;2.13;;;;;;;;;;10353041;28;20036;-64
2021/10/28 22:52:32;;;;;;;6.00;2.97;;;;;;;;;;10349134;28;20028;-64
2021/10/28 22:57:39;;;;;;;2.13;1.98;;;;;;;;;;10371841;28;20032;-63
2021/10/28 23:02:52;;;;;;;4.07;2.40;;;;;;;;;;10376339;28;20042;-63
2021/10/28 23:23:54;;;;;;;5.97;2.42;;;;;;;;;;10369965;28;20140;-64
2021/10/28 23:28:52;;;;;;;2.90;2.13;;;;;;;;;;10372978;28;20132;-63
2021/10/28 23:33:49;;;;;;;10.07;2.33;;;;;;;;;;10371420;28;20028;-63
2021/10/28 23:38:47;;;;;;;4.60;2.40;;;;;;;;;;10374607;28;20036;-63
2021/10/28 23:43:44;;;;;;;5.20;3.77;;;;;;;;;;10378460;28;20455;-64
2021/10/28 23:48:42;;;;;;;4.77;2.93;;;;;;;;;;10376254;28;20028;-63
2021/10/28 23:53:39;;;;;;;6.67;4.20;;;;;;;;;;10376543;28;20067;-62
2021/10/28 23:58:36;;;;;;;9.60;4.27;;;;;;;;;;10377037;28;20036;-63
